Time;durP1;ratioP1;P1;durP2;ratioP2;P2;SDS_P1;SDS_P2;PMS_P1;PMS_P2;Temp;Humidity;BMP_temperature;BMP_pressure;BME280_temperature;BME280_humidity;BME280_pressure;Samples;Min_cycle;Max_cycle;Signal;HPM_P1;HPM_P2
2021/12/31 00:00:22;;;;;;;31.05;15.15;;;6.50;99.90;;;;;;5131965;28;20035;-58
2021/12/31 00:02:48;;;;;;;35.80;14.95;;;6.40;99.90;;;;;;5131802;28;20050;-57
2021/12/31 00:05:15;;;;;;;37.05;16.35;;;6.40;99.90;;;;;;5131479;28;20487;-58
2021/12/31 00:07:43;;;;;;;32.83;15.07;;;6.40;99.90;;;;;;5131957;28;20039;-58
2021/12/31 00:10:11;;;;;;;31.52;15.45;;;6.50;99.90;;;;;;5133256;27;20043;-58
2021/12/31 00:12:40;;;;;;;38.08;15.85;;;6.50;99.90;;;;;;5135410;27;20067;-58
2021/12/31 00:15:08;;;;;;;39.90;16.58;;;6.40;99.90;;;;;;5135313;27;20043;-58
2021/12/31 00:17:35;;;;;;;29.08;13.55;;;6.40;99.90;;;;;;5135354;27;20046;-58
2021/12/31 00:20:10;;;;;;;33.03;15.35;;;6.40;99.90;;;;;;5135568;27;20039;-58
2021/12/31 00:25:14;;;;;;;28.90;13.13;;;6.30;99.90;;;;;;5135154;27;20039;-58
2021/12/31 00:27:41;;;;;;;;;;;6.40;99.90;;;;;;5135802;27;20716;-58
2021/12/31 00:30:09;;;;;;;27.65;13.25;;;6.30;99.90;;;;;;5135457;27;19919;-56
2021/12/31 00:32:36;;;;;;;33.78;14.55;;;6.30;99.90;;;;;;5135005;27;20049;-58
2021/12/31 00:35:05;;;;;;;34.47;14.88;;;6.30;99.90;;;;;;5135229;27;20095;-57
2021/12/31 00:37:35;;;;;;;32.03;14.73;;;6.30;99.90;;;;;;5134852;27;20039;-56
2021/12/31 00:40:09;;;;;;;32.10;14.73;;;6.20;99.90;;;;;;5134855;27;20532;-58
2021/12/31 00:42:36;;;;;;;41.05;15.10;;;6.30;99.90;;;;;;5135073;27;20092;-58
2021/12/31 00:45:05;;;;;;;28.52;14.73;;;6.20;99.90;;;;;;5135022;27;20043;-58
2021/12/31 00:47:32;;;;;;;36.03;14.55;;;6.20;99.90;;;;;;5134816;27;20071;-58
2021/12/31 00:49:59;;;;;;;30.42;13.65;;;6.20;99.90;;;;;;5134800;27;20047;-57
2021/12/31 00:52:26;;;;;;;28.67;13.20;;;6.20;99.90;;;;;;5134775;27;20452;-57
2021/12/31 00:54:53;;;;;;;26.92;13.10;;;6.20;99.90;;;;;;5134641;27;20096;-57
2021/12/31 00:57:20;;;;;;;30.60;13.45;;;6.20;99.90;;;;;;5134457;27;20043;-57
2021/12/31 00:59:46;;;;;;;27.60;12.77;;;6.20;99.90;;;;;;5134911;27;20050;-58
2021/12/31 01:02:16;;;;;;;30.20;13.05;;;6.20;99.90;;;;;;5134556;27;20044;-58
2021/12/31 01:04:43;;;;;;;22.90;11.07;;;6.20;99.90;;;;;;5134767;27;20122;-58
2021/12/31 01:07:10;;;;;;;;;;;6.20;99.90;;;;;;5134756;27;20092;-58
2021/12/31 01:09:37;;;;;;;21.25;11.10;;;6.20;99.90;;;;;;5134580;27;19920;-58
2021/12/31 01:12:06;;;;;;;17.95;10.15;;;6.30;99.90;;;;;;5134639;27;20092;-58
2021/12/31 01:14:40;;;;;;;18.27;10.38;;;6.20;99.90;;;;;;5134334;27;20047;-58
2021/12/31 01:17:11;;;;;;;14.57;8.88;;;6.30;99.90;;;;;;5134401;27;20400;-59
2021/12/31 01:19:46;;;;;;;17.50;9.93;;;6.30;99.90;;;;;;5134252;27;20035;-58
2021/12/31 01:22:18;;;;;;;16.30;9.32;;;6.30;99.90;;;;;;5133647;27;20483;-57
2021/12/31 01:24:45;;;;;;;17.67;9.30;;;6.30;99.90;;;;;;5134407;27;20043;-58
2021/12/31 01:27:13;;;;;;;18.90;9.10;;;6.30;99.90;;;;;;5133757;27;20395;-57
2021/12/31 01:29:41;;;;;;;18.42;9.25;;;6.30;99.90;;;;;;5134238;27;20091;-57
2021/12/31 01:32:09;;;;;;;14.32;8.45;;;6.30;99.90;;;;;;5133968;27;20043;-57
2021/12/31 01:34:37;;;;;;;20.50;9.98;;;6.30;99.90;;;;;;5134034;27;20054;-58
2021/12/31 01:37:05;;;;;;;17.80;9.70;;;6.30;99.90;;;;;;5133505;27;20050;-56
2021/12/31 01:39:32;;;;;;;13.88;8.45;;;6.30;99.90;;;;;;5134065;27;20100;-58
2021/12/31 01:42:00;;;;;;;15.43;8.30;;;6.30;99.90;;;;;;5134012;27;20503;-58
2021/12/31 01:44:43;;;;;;;17.55;8.15;;;6.20;99.90;;;;;;5133942;27;20449;-58
2021/12/31 01:47:15;;;;;;;15.05;8.13;;;6.20;99.90;;;;;;5133521;27;20118;-56
2021/12/31 01:49:54;;;;;;;15.13;8.55;;;6.20;99.90;;;;;;5133730;27;20035;-58
2021/12/31 01:52:22;;;;;;;15.93;7.80;;;6.20;99.90;;;;;;5133816;27;20119;-58
2021/12/31 01:54:50;;;;;;;14.88;7.57;;;6.20;99.90;;;;;;5133776;27;20508;-56
2021/12/31 01:57:18;;;;;;;14.15;7.53;;;6.20;99.90;;;;;;5133209;27;20095;-56
2021/12/31 01:59:45;;;;;;;13.73;7.20;;;6.20;99.90;;;;;;5133632;27;20067;-58
2021/12/31 02:02:12;;;;;;;13.98;7.40;;;6.20;99.90;;;;;;5115219;27;20043;-58
2021/12/31 02:04:40;;;;;;;14.20;7.28;;;6.20;99.90;;;;;;5133619;27;20039;-57
2021/12/31 02:07:08;;;;;;;15.48;8.20;;;6.10;99.90;;;;;;5133238;27;20040;-58
2021/12/31 02:09:40;;;;;;;13.85;7.00;;;6.10;99.90;;;;;;5133483;27;20046;-57
2021/12/31 02:12:08;;;;;;;20.27;8.73;;;6.00;99.90;;;;;;5133341;27;20047;-57
2021/12/31 02:14:36;;;;;;;16.08;7.68;;;6.00;99.90;;;;;;5133495;27;20118;-57
2021/12/31 02:17:07;;;;;;;19.02;9.40;;;5.90;99.90;;;;;;5132922;27;20088;-58
2021/12/31 02:19:34;;;;;;;16.25;8.05;;;5.90;99.90;;;;;;5133215;27;20036;-58
2021/12/31 02:22:02;;;;;;;17.38;8.32;;;5.90;99.90;;;;;;5133174;27;20092;-57
2021/12/31 02:24:29;;;;;;;18.60;8.35;;;5.90;99.90;;;;;;5132869;27;20039;-58
2021/12/31 02:26:56;;;;;;;16.88;9.27;;;5.90;99.90;;;;;;5132812;27;20041;-57
2021/12/31 02:29:24;;;;;;;16.77;8.82;;;5.90;99.90;;;;;;5133148;27;20043;-57
2021/12/31 02:31:53;;;;;;;16.50;7.82;;;5.90;99.90;;;;;;5132629;27;20047;-58
2021/12/31 02:34:20;;;;;;;16.92;8.02;;;5.90;99.90;;;;;;5132166;27;20051;-58
2021/12/31 02:36:49;;;;;;;16.42;7.40;;;5.90;99.90;;;;;;5132430;27;20071;-57
2021/12/31 02:39:16;;;;;;;16.20;7.88;;;5.90;99.90;;;;;;5132847;27;20031;-58
2021/12/31 02:41:44;;;;;;;19.80;8.68;;;5.90;99.90;;;;;;5132931;27;20096;-58
2021/12/31 02:44:10;;;;;;;;;;;5.90;99.90;;;;;;5133374;27;20043;-58
2021/12/31 02:46:37;;;;;;;17.45;7.97;;;5.80;99.90;;;;;;5132265;27;19926;-56
2021/12/31 02:49:05;;;;;;;18.92;8.32;;;5.80;99.90;;;;;;5132940;27;20056;-56
2021/12/31 02:51:32;;;;;;;15.10;8.13;;;5.70;99.90;;;;;;5132496;27;20049;-57
2021/12/31 02:54:01;;;;;;;18.92;8.73;;;5.60;99.90;;;;;;5132715;27;20078;-56
2021/12/31 02:56:29;;;;;;;16.88;8.73;;;5.70;99.90;;;;;;5132118;27;20047;-56
2021/12/31 02:58:58;;;;;;;15.13;7.97;;;5.60;99.90;;;;;;5132713;27;20049;-59
2021/12/31 03:01:25;;;;;;;15.07;7.85;;;5.60;99.90;;;;;;5132571;27;20036;-57
2021/12/31 03:03:55;;;;;;;14.30;7.53;;;5.60;99.90;;;;;;5132417;27;20046;-56
2021/12/31 03:06:23;;;;;;;15.27;7.57;;;5.60;99.90;;;;;;5132057;27;20483;-56
2021/12/31 03:08:54;;;;;;;16.40;8.32;;;5.60;99.90;;;;;;5132627;27;20678;-58
2021/12/31 03:11:23;;;;;;;19.50;8.15;;;5.60;99.90;;;;;;5132504;27;20141;-59
2021/12/31 03:13:54;;;;;;;20.05;9.07;;;5.60;99.90;;;;;;5132536;28;20039;-55
2021/12/31 03:16:22;;;;;;;15.80;8.52;;;5.60;99.90;;;;;;5132065;28;20491;-56
2021/12/31 03:18:50;;;;;;;18.67;8.65;;;5.60;99.90;;;;;;5132411;28;20491;-58
2021/12/31 03:21:21;;;;;;;19.45;9.05;;;5.60;99.90;;;;;;5132224;28;20071;-58
2021/12/31 03:23:54;;;;;;;16.30;8.27;;;5.60;99.90;;;;;;5132417;28;20047;-57
2021/12/31 03:26:22;;;;;;;16.88;7.60;;;5.60;99.90;;;;;;5132050;28;20039;-58
2021/12/31 03:28:49;;;;;;;;;;;5.60;99.90;;;;;;5132730;28;20039;-58
2021/12/31 03:31:16;;;;;;;16.35;7.40;;;5.60;99.90;;;;;;5132018;28;19919;-58
2021/12/31 03:33:43;;;;;;;;;;;5.60;99.90;;;;;;5132798;28;20483;-58
2021/12/31 03:36:10;;;;;;;16.77;7.75;;;5.60;99.90;;;;;;5132173;28;20385;-58
2021/12/31 03:38:37;;;;;;;17.98;7.80;;;5.50;99.90;;;;;;5132249;28;20039;-59
2021/12/31 03:41:04;;;;;;;16.05;8.00;;;5.50;99.90;;;;;;5132031;28;20415;-59
2021/12/31 03:43:30;;;;;;;15.50;7.65;;;5.50;99.90;;;;;;5132104;28;20055;-58
2021/12/31 03:45:57;;;;;;;14.60;8.27;;;5.50;99.90;;;;;;5134497;27;20053;-58
2021/12/31 03:48:24;;;;;;;19.55;7.35;;;5.50;99.90;;;;;;5136010;27;20050;-58
2021/12/31 03:50:51;;;;;;;13.50;6.57;;;5.60;99.90;;;;;;5136164;27;20072;-58
2021/12/31 03:53:19;;;;;;;13.63;7.55;;;5.50;99.90;;;;;;5136151;27;20151;-58
2021/12/31 03:55:47;;;;;;;12.95;7.28;;;5.60;99.90;;;;;;5135706;27;20043;-58
2021/12/31 03:58:13;;;;;;;13.68;7.07;;;5.60;99.90;;;;;;5135931;27;20035;-58
2021/12/31 04:00:40;;;;;;;10.73;6.68;;;5.60;99.90;;;;;;5135842;27;20043;-58
2021/12/31 04:03:09;;;;;;;12.00;6.28;;;5.70;99.90;;;;;;5135883;27;20088;-58
2021/12/31 04:05:38;;;;;;;12.77;7.18;;;5.60;99.90;;;;;;5135454;27;20125;-57
2021/12/31 04:08:06;;;;;;;13.82;7.00;;;5.60;99.90;;;;;;5135858;27;20073;-58
2021/12/31 04:10:33;;;;;;;12.27;7.22;;;5.70;99.90;;;;;;5135618;27;20067;-58
2021/12/31 04:13:00;;;;;;;14.27;7.88;;;5.70;99.90;;;;;;5135586;27;20388;-56
2021/12/31 04:15:27;;;;;;;13.98;7.20;;;5.70;99.90;;;;;;5135316;27;20070;-58
2021/12/31 04:17:54;;;;;;;11.18;6.13;;;5.70;99.90;;;;;;5135749;27;20039;-58
2021/12/31 04:20:34;;;;;;;12.25;6.35;;;5.70;99.90;;;;;;5135571;27;20043;-56
2021/12/31 04:23:04;;;;;;;9.70;5.57;;;5.70;99.90;;;;;;5135291;27;20055;-58
2021/12/31 04:25:30;;;;;;;10.63;6.00;;;5.70;99.90;;;;;;5135068;27;20066;-58
2021/12/31 04:27:58;;;;;;;11.07;6.25;;;5.60;99.90;;;;;;5135561;27;20043;-58
2021/12/31 04:30:25;;;;;;;9.48;6.00;;;5.70;99.90;;;;;;5135434;27;20130;-58
2021/12/31 04:36:28;;;;;;;9.70;5.80;;;5.70;99.90;;;;;;5113609;28;20083;-60
2021/12/31 04:38:55;;;;;;;9.10;5.55;;;5.60;99.90;;;;;;5105489;28;20040;-62
2021/12/31 04:41:21;;;;;;;9.30;5.57;;;5.60;99.90;;;;;;5096762;28;20083;-62
2021/12/31 04:43:49;;;;;;;9.95;5.65;;;5.60;99.90;;;;;;5114529;28;20104;-62
2021/12/31 04:46:16;;;;;;;9.98;5.53;;;5.60;99.90;;;;;;5114285;28;20556;-60
2021/12/31 04:48:43;;;;;;;8.10;4.93;;;5.50;99.90;;;;;;5114414;28;20088;-60
2021/12/31 04:51:10;;;;;;;8.15;4.78;;;5.60;99.90;;;;;;5096308;28;20043;-62
2021/12/31 04:53:36;;;;;;;9.13;5.32;;;5.50;99.90;;;;;;5114511;28;20044;-62
2021/12/31 04:56:03;;;;;;;7.43;4.43;;;5.50;99.90;;;;;;5113570;28;20040;-62
2021/12/31 04:58:30;;;;;;;9.80;5.78;;;5.50;99.90;;;;;;5113711;28;20085;-62
2021/12/31 05:00:57;;;;;;;9.90;5.40;;;5.50;99.90;;;;;;5114303;28;20046;-62
2021/12/31 05:03:24;;;;;;;8.63;5.45;;;5.50;99.90;;;;;;5114201;28;20036;-62
2021/12/31 05:05:51;;;;;;;9.52;5.60;;;5.50;99.90;;;;;;5113877;28;20046;-62
2021/12/31 05:08:19;;;;;;;9.48;5.28;;;5.50;99.90;;;;;;5114159;28;20046;-62
2021/12/31 05:10:46;;;;;;;9.07;5.35;;;5.40;99.90;;;;;;5113936;28;20500;-62
2021/12/31 05:13:15;;;;;;;9.65;4.90;;;5.40;99.90;;;;;;5113922;28;20484;-62
2021/12/31 05:15:47;;;;;;;10.32;6.20;;;5.40;99.90;;;;;;5113548;28;20090;-62
2021/12/31 05:18:14;;;;;;;8.80;5.75;;;5.30;99.90;;;;;;5113955;28;20507;-62
2021/12/31 05:20:41;;;;;;;9.00;5.45;;;5.30;99.90;;;;;;5113775;28;20109;-62
2021/12/31 05:23:08;;;;;;;9.27;6.07;;;5.30;99.90;;;;;;5113828;28;20404;-62
2021/12/31 05:25:35;;;;;;;8.60;5.10;;;5.30;99.90;;;;;;5113293;28;20036;-61
2021/12/31 05:28:02;;;;;;;7.78;4.80;;;5.30;99.90;;;;;;5113811;28;20047;-62
2021/12/31 05:30:29;;;;;;;8.82;5.28;;;5.30;99.90;;;;;;5113788;28;20104;-62
2021/12/31 05:32:56;;;;;;;;;;;5.30;99.90;;;;;;5113850;28;20052;-62
2021/12/31 05:35:23;;;;;;;8.77;5.22;;;5.30;99.90;;;;;;5113201;28;19920;-62
2021/12/31 05:37:51;;;;;;;10.20;5.32;;;5.30;99.90;;;;;;5113583;28;20074;-62
2021/12/31 05:40:18;;;;;;;11.18;5.43;;;5.20;99.90;;;;;;5113387;28;20088;-62
2021/12/31 05:42:45;;;;;;;10.32;5.60;;;5.20;99.90;;;;;;5113315;28;20028;-62
2021/12/31 05:45:13;;;;;;;8.95;5.65;;;5.20;99.90;;;;;;5112966;28;20569;-62
2021/12/31 05:47:40;;;;;;;9.93;6.28;;;5.20;99.90;;;;;;5113453;28;20049;-62
2021/12/31 05:50:18;;;;;;;8.20;5.03;;;5.10;99.90;;;;;;5113571;28;20070;-62
2021/12/31 05:52:46;;;;;;;11.18;6.30;;;5.10;99.90;;;;;;5113131;28;20055;-62
2021/12/31 05:55:13;;;;;;;13.25;6.35;;;5.00;99.90;;;;;;5112727;28;20054;-62
2021/12/31 05:57:40;;;;;;;11.57;6.60;;;5.00;99.90;;;;;;5113223;28;20096;-62
2021/12/31 06:00:07;;;;;;;15.10;7.35;;;4.90;99.90;;;;;;5113126;28;20131;-62
2021/12/31 06:02:37;;;;;;;12.05;6.25;;;4.90;99.90;;;;;;5112801;28;20039;-62
2021/12/31 06:05:04;;;;;;;10.88;6.72;;;4.90;99.90;;;;;;5112789;28;20119;-62
2021/12/31 06:07:31;;;;;;;;;;;4.90;99.90;;;;;;5112949;28;20110;-62
2021/12/31 06:09:58;;;;;;;11.57;6.50;;;4.90;99.90;;;;;;5113013;28;19968;-62
2021/12/31 06:12:25;;;;;;;11.15;6.53;;;4.90;99.90;;;;;;5112884;28;20082;-62
2021/12/31 06:14:54;;;;;;;11.98;5.90;;;4.90;99.90;;;;;;5112613;28;20048;-62
2021/12/31 06:17:26;;;;;;;9.43;5.28;;;5.00;99.90;;;;;;5112387;28;20555;-62
2021/12/31 06:19:54;;;;;;;6.95;5.25;;;5.00;99.90;;;;;;5112763;28;20036;-62
2021/12/31 06:22:22;;;;;;;7.18;4.80;;;5.00;99.90;;;;;;5112524;28;20127;-62
2021/12/31 06:24:50;;;;;;;10.85;5.82;;;5.00;99.90;;;;;;5112426;28;20051;-62
2021/12/31 06:27:18;;;;;;;9.65;5.70;;;5.00;99.90;;;;;;5112236;28;20119;-62
2021/12/31 06:29:45;;;;;;;9.20;5.78;;;4.90;99.90;;;;;;5115869;27;20051;-62
2021/12/31 06:32:12;;;;;;;10.18;6.05;;;5.00;99.90;;;;;;5117154;27;20130;-62
2021/12/31 06:34:39;;;;;;;9.20;5.25;;;5.00;99.90;;;;;;5124363;27;20659;-62
2021/12/31 06:37:05;;;;;;;9.23;5.30;;;5.00;99.90;;;;;;5132378;27;20107;-62
2021/12/31 06:39:35;;;;;;;9.60;5.20;;;4.90;99.90;;;;;;5132910;27;20115;-62
2021/12/31 06:42:03;;;;;;;9.60;5.20;;;4.90;99.90;;;;;;5132814;27;20043;-61
2021/12/31 06:44:30;;;;;;;9.63;6.15;;;4.90;99.90;;;;;;5132825;27;20112;-62
2021/12/31 06:46:57;;;;;;;10.38;5.97;;;4.90;99.90;;;;;;5132423;27;20039;-62
2021/12/31 06:49:24;;;;;;;11.13;5.97;;;4.90;99.90;;;;;;5132863;27;20045;-62
2021/12/31 06:51:51;;;;;;;11.77;6.22;;;4.90;99.90;;;;;;5132557;27;20040;-62
2021/12/31 06:54:18;;;;;;;11.07;6.50;;;4.90;99.90;;;;;;5132695;27;20049;-62
2021/12/31 06:56:45;;;;;;;12.50;6.40;;;4.90;99.90;;;;;;5132368;27;20088;-62
2021/12/31 06:59:12;;;;;;;8.65;5.30;;;4.90;99.90;;;;;;5132331;27;20041;-62
2021/12/31 07:01:38;;;;;;;9.75;6.03;;;4.90;99.90;;;;;;5132634;27;20043;-62
2021/12/31 07:04:06;;;;;;;9.07;5.47;;;4.90;99.90;;;;;;5132475;27;20043;-61
2021/12/31 07:06:32;;;;;;;10.38;5.10;;;4.80;99.90;;;;;;5132427;27;20043;-61
2021/12/31 07:08:59;;;;;;;8.82;5.38;;;4.90;99.90;;;;;;5132353;27;20039;-62
2021/12/31 07:11:26;;;;;;;9.68;5.88;;;4.80;99.90;;;;;;5132523;27;20396;-61
2021/12/31 07:13:53;;;;;;;9.10;5.50;;;4.90;99.90;;;;;;5132406;28;20043;-62
2021/12/31 07:16:19;;;;;;;9.38;6.13;;;4.90;99.90;;;;;;5132326;28;20517;-62
2021/12/31 07:18:46;;;;;;;11.93;6.40;;;4.90;99.90;;;;;;5132379;27;20120;-62
2021/12/31 07:21:13;;;;;;;11.48;5.70;;;4.90;99.90;;;;;;5135656;27;20042;-62
2021/12/31 07:23:40;;;;;;;8.50;5.25;;;4.90;99.90;;;;;;5136709;27;20084;-62
2021/12/31 07:26:08;;;;;;;8.85;5.25;;;4.90;99.90;;;;;;5135943;27;20552;-61
2021/12/31 07:28:35;;;;;;;8.23;5.43;;;4.80;99.90;;;;;;5136630;27;20035;-62
2021/12/31 07:31:02;;;;;;;8.32;5.60;;;4.90;99.90;;;;;;5133071;27;20040;-62
2021/12/31 07:33:29;;;;;;;9.30;5.53;;;4.90;99.90;;;;;;5136466;27;20435;-62
2021/12/31 07:35:57;;;;;;;9.43;5.22;;;4.80;99.90;;;;;;5132550;27;20051;-62
2021/12/31 07:38:35;;;;;;;11.32;5.97;;;4.80;99.90;;;;;;5136454;27;20042;-62
2021/12/31 07:41:04;;;;;;;8.65;5.20;;;4.90;99.90;;;;;;5132680;27;20114;-62
2021/12/31 07:43:31;;;;;;;9.00;5.60;;;4.80;99.90;;;;;;5136351;27;20100;-62
2021/12/31 07:45:59;;;;;;;10.50;5.53;;;4.70;99.90;;;;;;5131272;27;20034;-62
2021/12/31 07:48:26;;;;;;;12.02;7.35;;;4.80;99.90;;;;;;5115759;28;20089;-62
2021/12/31 07:50:53;;;;;;;11.18;7.00;;;4.90;99.90;;;;;;5115640;28;20051;-62
2021/12/31 07:53:21;;;;;;;10.05;5.80;;;4.90;99.90;;;;;;5115275;28;20089;-62
2021/12/31 07:55:48;;;;;;;9.70;5.60;;;4.90;99.90;;;;;;5117717;27;20039;-62
2021/12/31 07:58:14;;;;;;;14.50;6.32;;;5.00;99.90;;;;;;5097366;28;20462;-62
2021/12/31 08:00:41;;;;;;;9.27;5.30;;;5.00;99.90;;;;;;5115516;27;20055;-62
2021/12/31 08:03:08;;;;;;;10.27;5.55;;;5.00;99.90;;;;;;5115468;28;20044;-62
2021/12/31 08:05:36;;;;;;;11.25;5.55;;;5.00;99.90;;;;;;5115103;28;20047;-62
2021/12/31 08:08:05;;;;;;;9.32;5.75;;;5.00;99.90;;;;;;5115132;28;20072;-62
2021/12/31 08:10:35;;;;;;;11.95;6.78;;;5.00;99.90;;;;;;5115303;28;20036;-62
2021/12/31 08:13:26;;;;;;;11.45;6.07;;;5.00;99.90;;;;;;5115035;28;20507;-62
2021/12/31 08:15:53;;;;;;;9.45;5.43;;;5.10;99.90;;;;;;5114602;28;20734;-62
2021/12/31 08:18:20;;;;;;;7.93;4.75;;;5.10;99.90;;;;;;5115014;28;20035;-62
2021/12/31 08:20:47;;;;;;;8.18;5.43;;;5.30;99.90;;;;;;5115077;28;20043;-62
2021/12/31 08:23:14;;;;;;;7.30;4.78;;;5.30;99.90;;;;;;5115126;28;20039;-62
2021/12/31 08:25:42;;;;;;;9.88;5.10;;;5.30;99.90;;;;;;5117109;27;20107;-62
2021/12/31 08:28:10;;;;;;;7.63;4.20;;;5.40;99.90;;;;;;5130540;27;20560;-62
2021/12/31 08:30:36;;;;;;;10.40;5.70;;;5.30;99.90;;;;;;5135367;27;20049;-62
2021/12/31 08:33:03;;;;;;;9.68;5.60;;;5.30;99.90;;;;;;5134957;27;20035;-62
2021/12/31 08:35:30;;;;;;;13.43;6.40;;;5.20;99.90;;;;;;5134964;27;20043;-62
2021/12/31 08:37:58;;;;;;;8.90;5.70;;;5.20;99.90;;;;;;5135252;27;20039;-62
2021/12/31 08:40:25;;;;;;;9.50;5.72;;;5.30;99.90;;;;;;5135190;27;20049;-62
2021/12/31 08:42:52;;;;;;;17.70;9.15;;;5.40;99.90;;;;;;5135472;27;20043;-62
2021/12/31 08:45:21;;;;;;;10.40;6.45;;;5.40;99.90;;;;;;5134653;27;20114;-62
2021/12/31 08:47:48;;;;;;;10.25;5.70;;;5.60;99.90;;;;;;5134944;27;20047;-62
2021/12/31 08:50:15;;;;;;;9.45;6.10;;;5.70;99.90;;;;;;5128839;27;20031;-62
2021/12/31 08:52:42;;;;;;;;;;;5.80;99.90;;;;;;5123559;27;20446;-62
2021/12/31 08:55:09;;;;;;;6.90;4.15;;;5.90;99.90;;;;;;5131946;27;19972;-62
2021/12/31 08:57:36;;;;;;;;;;;5.90;99.90;;;;;;5135219;27;20059;-62
2021/12/31 09:00:05;;;;;;;5.68;3.95;;;6.00;99.90;;;;;;5133659;27;19919;-62
2021/12/31 09:02:35;;;;;;;6.30;3.80;;;6.00;99.90;;;;;;5134286;27;20092;-62
2021/12/31 09:05:02;;;;;;;5.93;3.67;;;6.00;99.90;;;;;;5134687;27;20039;-62
2021/12/31 09:07:29;;;;;;;5.15;3.60;;;6.10;99.90;;;;;;5134671;27;20622;-62
2021/12/31 09:09:56;;;;;;;4.15;3.13;;;6.10;99.90;;;;;;5134558;27;20096;-62
2021/12/31 09:12:24;;;;;;;5.47;3.78;;;6.10;99.90;;;;;;5134546;27;20487;-62
2021/12/31 09:14:51;;;;;;;6.47;3.97;;;6.10;99.90;;;;;;5134373;27;20043;-62
2021/12/31 09:17:18;;;;;;;5.32;3.40;;;6.20;99.90;;;;;;5134132;27;20660;-62
2021/12/31 09:19:44;;;;;;;6.10;3.50;;;6.10;99.90;;;;;;5134465;27;20071;-62
2021/12/31 09:22:11;;;;;;;6.72;3.33;;;6.20;99.90;;;;;;5134322;27;20039;-62
2021/12/31 09:24:38;;;;;;;4.78;3.50;;;6.30;99.90;;;;;;5134521;27;20076;-62
2021/12/31 09:27:05;;;;;;;5.32;3.97;;;6.30;99.90;;;;;;5133726;27;20039;-62
2021/12/31 09:29:33;;;;;;;8.30;4.32;;;6.40;99.90;;;;;;5134257;27;20043;-62
2021/12/31 09:32:00;;;;;;;6.40;4.00;;;6.40;99.90;;;;;;5134162;27;20039;-62
2021/12/31 09:34:27;;;;;;;7.32;4.10;;;6.40;99.90;;;;;;5134152;27;20039;-62
2021/12/31 09:36:54;;;;;;;6.10;3.65;;;6.50;99.90;;;;;;5133411;27;20138;-62
2021/12/31 09:39:21;;;;;;;6.05;3.65;;;6.60;99.90;;;;;;5133985;27;20051;-62
2021/12/31 09:41:48;;;;;;;7.32;4.10;;;6.60;99.90;;;;;;5133907;27;20491;-62
2021/12/31 09:44:15;;;;;;;6.57;3.70;;;6.70;99.90;;;;;;5124474;27;20043;-62
2021/12/31 09:46:43;;;;;;;6.47;4.07;;;6.70;99.90;;;;;;5122697;27;20484;-62
2021/12/31 09:49:10;;;;;;;7.03;3.95;;;6.70;99.90;;;;;;5121656;27;20053;-62
2021/12/31 09:51:42;;;;;;;5.70;4.07;;;6.70;99.90;;;;;;5112474;28;20069;-62
2021/12/31 09:54:10;;;;;;;6.10;4.60;;;6.70;99.90;;;;;;5113053;28;20047;-62
2021/12/31 09:56:40;;;;;;;5.03;3.60;;;6.80;99.90;;;;;;5112710;28;20048;-62
2021/12/31 09:59:09;;;;;;;5.47;3.85;;;6.90;99.90;;;;;;5112850;28;20053;-62
2021/12/31 10:01:50;;;;;;;5.30;3.65;;;7.00;99.90;;;;;;5112566;28;20400;-62
2021/12/31 10:04:17;;;;;;;4.20;3.17;;;7.20;99.90;;;;;;5112984;28;20040;-62
2021/12/31 10:07:06;;;;;;;4.75;3.25;;;7.20;99.90;;;;;;5111934;28;20041;-62
2021/12/31 10:09:35;;;;;;;6.65;3.47;;;7.40;99.90;;;;;;5112927;28;20057;-62
2021/12/31 10:12:08;;;;;;;4.97;3.40;;;7.40;99.90;;;;;;5112833;28;20036;-62
2021/12/31 10:14:37;;;;;;;6.28;4.10;;;7.10;99.90;;;;;;5112223;28;20048;-62
2021/12/31 10:17:08;;;;;;;5.45;3.17;;;7.10;99.90;;;;;;5112308;28;20100;-62
2021/12/31 10:19:35;;;;;;;6.03;3.50;;;7.00;99.90;;;;;;5112659;28;20500;-62
2021/12/31 10:22:02;;;;;;;5.50;3.88;;;7.10;99.90;;;;;;5112098;28;20557;-62
2021/12/31 10:24:39;;;;;;;8.05;4.85;;;7.20;99.90;;;;;;5112660;28;20050;-59
2021/12/31 10:27:09;;;;;;;6.25;3.55;;;7.30;99.90;;;;;;5112251;28;20047;-62
2021/12/31 10:29:51;;;;;;;7.15;4.45;;;7.20;99.90;;;;;;5111924;28;20039;-62
2021/12/31 10:32:18;;;;;;;7.28;4.13;;;7.40;99.90;;;;;;5130036;22;20039;-58
2021/12/31 10:34:45;;;;;;;;;;;7.50;99.90;;;;;;5130334;27;20114;-58
2021/12/31 10:37:17;;;;;;;10.88;4.40;;;7.50;99.90;;;;;;5119649;27;19923;-56
2021/12/31 10:39:53;;;;;;;6.50;3.90;;;7.60;99.90;;;;;;5124246;27;20095;-58
2021/12/31 10:42:20;;;;;;;6.85;3.63;;;7.50;99.90;;;;;;5130722;27;20080;-58
2021/12/31 10:44:52;;;;;;;7.32;4.10;;;7.40;99.90;;;;;;5127967;27;20054;-58
2021/12/31 10:47:23;;;;;;;7.70;3.72;;;7.30;99.90;;;;;;5114453;27;20063;-58
2021/12/31 10:50:02;;;;;;;6.90;3.85;;;7.30;99.90;;;;;;5129649;27;20035;-58
2021/12/31 10:52:40;;;;;;;5.88;3.70;;;7.40;99.90;;;;;;5099921;28;20066;-58
2021/12/31 10:55:18;;;;;;;6.13;3.85;;;7.50;99.90;;;;;;5110464;28;20039;-58
2021/12/31 10:57:47;;;;;;;5.60;3.75;;;7.50;99.90;;;;;;5112175;28;20046;-57
2021/12/31 11:00:16;;;;;;;10.48;5.88;;;7.40;99.90;;;;;;5111818;28;20117;-58
2021/12/31 11:02:44;;;;;;;7.63;4.00;;;7.40;99.90;;;;;;5112050;28;20028;-58
2021/12/31 11:05:13;;;;;;;5.78;3.40;;;7.40;99.90;;;;;;5109641;28;20100;-52
2021/12/31 11:07:41;;;;;;;5.55;3.70;;;7.50;99.90;;;;;;5111636;28;20074;-56
2021/12/31 11:10:37;;;;;;;7.30;4.10;;;7.60;99.90;;;;;;5110298;28;20044;-57
2021/12/31 11:13:12;;;;;;;8.68;4.93;;;7.50;99.90;;;;;;5106441;28;20521;-56
2021/12/31 11:15:43;;;;;;;5.13;3.22;;;7.60;99.90;;;;;;5102430;28;20047;-56
2021/12/31 11:18:12;;;;;;;6.60;4.25;;;7.70;99.90;;;;;;5111582;28;20479;-56
2021/12/31 11:20:42;;;;;;;12.55;6.30;;;7.80;99.90;;;;;;5111322;28;20043;-56
2021/12/31 11:23:09;;;;;;;7.40;3.55;;;7.80;99.90;;;;;;5111356;28;20052;-57
2021/12/31 11:26:04;;;;;;;4.72;2.88;;;7.60;99.90;;;;;;5111237;28;20047;-58
2021/12/31 11:28:35;;;;;;;4.43;2.70;;;7.70;99.90;;;;;;5111526;28;20085;-57
2021/12/31 11:31:20;;;;;;;4.28;2.95;;;7.70;99.90;;;;;;5111616;28;20492;-57
2021/12/31 11:33:59;;;;;;;5.78;2.95;;;7.70;99.90;;;;;;5111165;28;20477;-58
2021/12/31 11:36:43;;;;;;;4.43;3.03;;;7.60;99.90;;;;;;5110812;28;20092;-56
2021/12/31 11:39:36;;;;;;;4.05;3.17;;;7.50;99.90;;;;;;5111576;28;20043;-57
2021/12/31 11:42:05;;;;;;;3.85;3.22;;;7.60;99.90;;;;;;5110896;28;20044;-57
2021/12/31 11:44:34;;;;;;;5.20;3.20;;;7.60;99.90;;;;;;5111293;28;20469;-57
2021/12/31 11:47:11;;;;;;;5.07;2.92;;;7.60;99.90;;;;;;5127047;28;20071;-56
2021/12/31 11:49:38;;;;;;;6.65;3.20;;;7.60;99.90;;;;;;5114406;28;20441;-58
2021/12/31 11:52:05;;;;;;;;;;;7.60;99.90;;;;;;5112210;28;20047;-57
2021/12/31 11:54:34;;;;;;;5.25;2.67;;;7.60;99.90;;;;;;5130486;28;20149;-57
2021/12/31 11:57:03;;;;;;;4.15;2.72;;;7.70;99.90;;;;;;5129854;28;20043;-57
2021/12/31 11:59:33;;;;;;;5.25;2.90;;;7.80;99.90;;;;;;5130148;28;20035;-58
2021/12/31 12:02:09;;;;;;;5.57;3.28;;;7.80;99.90;;;;;;5130208;28;20445;-57
2021/12/31 12:05:07;;;;;;;5.85;3.30;;;7.80;99.90;;;;;;5123593;28;20038;-57
2021/12/31 12:07:40;;;;;;;3.95;2.97;;;7.80;99.90;;;;;;5108237;28;20495;-57
2021/12/31 12:10:13;;;;;;;4.88;3.10;;;7.90;99.90;;;;;;5113936;28;20058;-56
2021/12/31 12:12:43;;;;;;;5.80;3.17;;;7.90;99.90;;;;;;5114432;28;20046;-56
2021/12/31 12:15:19;;;;;;;5.47;3.58;;;7.90;99.90;;;;;;5112763;27;20089;-57
2021/12/31 12:17:47;;;;;;;6.55;4.13;;;7.90;99.90;;;;;;5111408;28;20047;-57
2021/12/31 12:20:18;;;;;;;8.05;4.43;;;7.90;99.90;;;;;;5113852;28;20047;-57
2021/12/31 12:22:50;;;;;;;5.18;3.30;;;7.90;99.90;;;;;;5112551;28;20483;-56
2021/12/31 12:25:24;;;;;;;4.60;3.53;;;8.00;99.90;;;;;;5114572;28;20039;-57
2021/12/31 12:27:57;;;;;;;7.35;3.72;;;8.00;99.90;;;;;;5114363;28;20092;-57
2021/12/31 12:30:26;;;;;;;4.57;3.40;;;8.10;99.90;;;;;;5112130;28;20039;-57
2021/12/31 12:33:07;;;;;;;5.40;3.55;;;8.20;99.90;;;;;;5112708;28;20380;-58
2021/12/31 12:35:39;;;;;;;10.02;4.78;;;8.20;99.90;;;;;;5112890;28;20105;-57
2021/12/31 12:38:11;;;;;;;7.95;3.53;;;8.20;99.90;;;;;;5113989;28;20047;-57
2021/12/31 12:40:42;;;;;;;3.67;2.78;;;8.30;99.90;;;;;;5104694;28;20051;-57
2021/12/31 12:43:14;;;;;;;3.85;2.80;;;8.20;99.90;;;;;;5105556;28;20543;-57
2021/12/31 12:45:43;;;;;;;6.22;2.95;;;8.30;99.90;;;;;;5100201;28;20260;-64
2021/12/31 12:48:10;;;;;;;3.97;2.65;;;8.30;99.90;;;;;;5094149;28;20055;-61
2021/12/31 12:50:38;;;;;;;3.47;2.40;;;8.40;99.90;;;;;;5093576;28;20545;-59
2021/12/31 12:53:06;;;;;;;5.80;3.15;;;8.40;99.90;;;;;;5093350;28;20099;-63
2021/12/31 12:55:33;;;;;;;7.38;4.20;;;8.50;99.90;;;;;;5096835;28;20109;-61
2021/12/31 12:58:01;;;;;;;8.90;4.22;;;8.60;99.90;;;;;;5097655;28;20039;-62
2021/12/31 13:00:32;;;;;;;7.05;4.43;;;8.60;99.90;;;;;;5092732;28;20077;-59
2021/12/31 13:03:10;;;;;;;5.57;3.28;;;8.50;99.90;;;;;;5093757;28;20067;-59
2021/12/31 13:05:38;;;;;;;5.68;3.22;;;8.50;99.90;;;;;;5093062;28;20554;-59
2021/12/31 13:08:06;;;;;;;3.83;3.00;;;8.50;99.90;;;;;;5091774;28;20036;-61
2021/12/31 13:10:34;;;;;;;6.00;3.30;;;8.40;99.90;;;;;;5091853;28;20595;-59